Time;durP1;ratioP1;P1;durP2;ratioP2;P2;SDS_P1;SDS_P2;PMS_P1;PMS_P2;Temp;Humidity;BMP_temperature;BMP_pressure;BME280_temperature;BME280_humidity;BME280_pressure;Samples;Min_cycle;Max_cycle;Signal;HPM_P1;HPM_P2
2023/11/01 00:02:05;;;;;;;0.60;0.60;;;;;;;-144.99;100.00;67352.69;4948160;28;20569;-88
2023/11/01 00:04:31;;;;;;;1.60;1.50;;;;;;;-144.99;100.00;67352.69;4933246;28;20681;-87
2023/11/01 00:06:58;;;;;;;2.67;1.27;;;;;;;-144.99;100.00;67352.69;4933458;29;20191;-86
2023/11/01 00:09:24;;;;;;;10.67;0.50;;;;;;;-144.99;100.00;67352.69;4933492;28;20721;-87
2023/11/01 00:11:49;;;;;;;0.70;0.70;;;;;;;-144.99;100.00;67352.69;4973641;28;20191;-87
2023/11/01 00:14:15;;;;;;;0.07;0.07;;;;;;;-144.99;100.00;67352.69;4957809;22;20230;-86
2023/11/01 00:16:53;;;;;;;0.57;0.57;;;;;;;-144.99;100.00;67352.69;4978387;28;20193;-86
2023/11/01 00:19:23;;;;;;;1.10;1.10;;;;;;;-144.99;100.00;67352.69;4992244;28;20205;-86
2023/11/01 00:21:51;;;;;;;0.80;0.77;;;;;;;-144.99;100.00;67352.69;4979286;28;20256;-87
2023/11/01 00:24:16;;;;;;;0.50;0.50;;;;;;;-144.99;100.00;67352.69;4975583;28;20185;-86
2023/11/01 00:26:42;;;;;;;2.20;1.73;;;;;;;-144.99;100.00;67352.69;4958742;28;20232;-87
2023/11/01 00:29:10;;;;;;;0.40;0.40;;;;;;;-144.99;100.00;67352.69;4979401;28;20197;-86
2023/11/01 00:31:35;;;;;;;1.70;1.40;;;;;;;-144.99;100.00;67352.69;5020401;28;20202;-86
2023/11/01 00:34:04;;;;;;;0.77;0.77;;;;;;;-144.99;100.00;67352.69;5009941;28;20236;-86
2023/11/01 00:36:34;;;;;;;1.50;1.13;;;;;;;-144.99;100.00;67352.69;4988522;28;20185;-86
2023/11/01 00:39:00;;;;;;;0.73;0.73;;;;;;;-144.99;100.00;67352.69;4969008;28;20226;-86
2023/11/01 00:41:35;;;;;;;3.70;2.17;;;;;;;-144.99;100.00;67352.69;5001659;28;20186;-86
2023/11/01 00:44:01;;;;;;;2.30;2.10;;;;;;;-144.99;100.00;67352.69;4998267;28;20186;-86
2023/11/01 00:46:27;;;;;;;1.27;1.17;;;;;;;-144.99;100.00;67352.69;5012057;28;20551;-86
2023/11/01 00:48:55;;;;;;;3.30;1.57;;;;;;;-144.99;100.00;67352.69;4972664;28;20179;-86
2023/11/01 00:51:23;;;;;;;1.77;1.20;;;;;;;-144.99;100.00;67352.69;5018554;28;20178;-87
2023/11/01 00:53:48;;;;;;;0.87;0.87;;;;;;;-144.99;100.00;67352.69;5020588;28;20194;-87
2023/11/01 00:56:16;;;;;;;2.93;1.70;;;;;;;-144.99;100.00;67352.69;4968591;28;20207;-86
2023/11/01 00:58:45;;;;;;;1.60;1.50;;;;;;;-144.99;100.00;67352.69;5018058;28;20195;-86
2023/11/01 01:01:16;;;;;;;0.70;0.70;;;;;;;-144.99;100.00;67352.69;4961245;28;20265;-86
2023/11/01 01:03:42;;;;;;;0.70;0.70;;;;;;;-144.99;100.00;67352.69;5000554;28;20189;-86
2023/11/01 01:06:10;;;;;;;0.97;0.97;;;;;;;-144.99;100.00;67352.69;4979793;28;20211;-86
2023/11/01 01:08:38;;;;;;;4.80;4.50;;;;;;;-144.99;100.00;67352.69;4985209;28;20178;-85
2023/11/01 01:11:06;;;;;;;2.20;2.00;;;;;;;-144.99;100.00;67352.69;4968525;28;20194;-86
2023/11/01 01:13:32;;;;;;;4.80;1.90;;;;;;;-144.99;100.00;67352.69;5017559;28;20172;-86
2023/11/01 01:16:03;;;;;;;2.93;2.73;;;;;;;-144.99;100.00;67352.69;5010840;28;20244;-86
2023/11/01 01:18:37;;;;;;;1.47;1.33;;;;;;;-144.99;100.00;67352.69;4999517;28;20321;-86
2023/11/01 01:21:03;;;;;;;0.37;0.37;;;;;;;-144.99;100.00;67352.69;4974332;28;20178;-86
2023/11/01 01:23:34;;;;;;;1.50;1.40;;;;;;;-144.99;100.00;67352.69;5016701;28;20248;-86
2023/11/01 01:25:59;;;;;;;1.07;0.97;;;;;;;-144.99;100.00;67352.69;5010553;28;20290;-86
2023/11/01 01:28:25;;;;;;;1.27;1.20;;;;;;;-144.99;100.00;67352.69;4984640;28;20217;-86
2023/11/01 01:30:52;;;;;;;0.33;0.33;;;;;;;-144.99;100.00;67352.69;4978730;28;20189;-86
2023/11/01 01:33:21;;;;;;;1.00;1.00;;;;;;;-144.99;100.00;67352.69;5006345;28;20293;-85
2023/11/01 01:35:46;;;;;;;1.00;1.00;;;;;;;-144.99;100.00;67352.69;4961221;28;20233;-86
2023/11/01 01:38:14;;;;;;;0.83;0.83;;;;;;;-144.99;100.00;67352.69;5001999;28;20190;-87
2023/11/01 01:40:45;;;;;;;0.63;0.63;;;;;;;-144.99;100.00;67352.69;5004573;28;20187;-86
2023/11/01 01:43:25;;;;;;;0.50;0.50;;;;;;;-144.99;100.00;67352.69;4977965;28;20190;-87
2023/11/01 01:46:09;;;;;;;0.80;0.80;;;;;;;-144.99;100.00;67352.69;4991087;28;20232;-86
2023/11/01 01:48:38;;;;;;;0.50;0.50;;;;;;;-144.99;100.00;67352.69;4960505;28;20182;-87
2023/11/01 01:51:05;;;;;;;0.40;0.40;;;;;;;-144.99;100.00;67352.69;4999684;28;20213;-86
2023/11/01 01:53:37;;;;;;;0.60;0.60;;;;;;;-144.99;100.00;67352.69;4986067;28;20198;-86
2023/11/01 01:56:04;;;;;;;3.70;1.30;;;;;;;-144.99;100.00;67352.69;5007095;28;20261;-86
2023/11/01 01:58:34;;;;;;;0.00;0.00;;;;;;;-144.99;100.00;67352.69;5000960;28;20269;-86
2023/11/01 02:00:59;;;;;;;0.30;0.30;;;;;;;-144.99;100.00;67352.69;4999632;28;20673;-86
2023/11/01 02:03:28;;;;;;;0.00;0.00;;;;;;;-144.99;100.00;67352.69;4998783;28;20190;-88
2023/11/01 02:05:55;;;;;;;0.20;0.13;;;;;;;-144.99;100.00;67352.69;5003201;28;20202;-87
2023/11/01 02:08:21;;;;;;;0.00;0.00;;;;;;;-144.99;100.00;67352.69;4995563;28;20193;-87
2023/11/01 02:10:48;;;;;;;0.00;0.00;;;;;;;-144.99;100.00;67352.69;4959597;28;20190;-86
2023/11/01 02:13:17;;;;;;;0.00;0.00;;;;;;;-144.99;100.00;67352.69;4970309;28;20962;-85
2023/11/01 02:15:51;;;;;;;0.83;0.83;;;;;;;-144.99;100.00;67352.69;4981701;28;20210;-86
2023/11/01 02:18:17;;;;;;;0.10;0.10;;;;;;;-144.99;100.00;67352.69;5005677;28;20190;-86
2023/11/01 02:20:45;;;;;;;0.37;0.37;;;;;;;-144.99;100.00;67352.69;5002485;28;20205;-87
2023/11/01 02:23:12;;;;;;;0.00;0.00;;;;;;;-144.99;100.00;67352.69;4976728;28;20183;-86
2023/11/01 02:25:39;;;;;;;0.00;0.00;;;;;;;-144.99;100.00;67352.69;4987068;28;20233;-86
2023/11/01 02:28:08;;;;;;;0.33;0.33;;;;;;;-144.99;100.00;67352.69;4960594;28;20190;-87
2023/11/01 02:30:33;;;;;;;0.23;0.13;;;;;;;-144.99;100.00;67352.69;4960610;28;20403;-86
2023/11/01 02:33:04;;;;;;;0.00;0.00;;;;;;;-144.99;100.00;67352.69;4966654;28;20178;-86
2023/11/01 02:35:32;;;;;;;0.10;0.10;;;;;;;-144.99;100.00;67352.69;5019661;28;20199;-87
2023/11/01 02:38:01;;;;;;;0.00;0.00;;;;;;;-144.99;100.00;67352.69;4969837;28;20661;-86
2023/11/01 02:40:26;;;;;;;0.00;0.00;;;;;;;-144.99;100.00;67352.69;5000576;28;20972;-87
2023/11/01 02:42:53;;;;;;;0.00;0.00;;;;;;;-144.99;100.00;67352.69;4959015;28;20194;-86
2023/11/01 02:45:25;;;;;;;0.00;0.00;;;;;;;-144.99;100.00;67352.69;5000990;28;20236;-86
2023/11/01 02:47:50;;;;;;;0.00;0.00;;;;;;;-144.99;100.00;67352.69;4965419;28;20250;-86
2023/11/01 02:50:19;;;;;;;0.00;0.00;;;;;;;-144.99;100.00;67352.69;5018822;28;20217;-86
2023/11/01 02:52:46;;;;;;;0.20;0.20;;;;;;;-144.99;100.00;67352.69;5018764;28;20197;-87
2023/11/01 02:55:20;;;;;;;0.13;0.13;;;;;;;-144.99;100.00;67352.69;4976543;28;20195;-86
2023/11/01 02:57:49;;;;;;;0.20;0.20;;;;;;;-144.99;100.00;67352.69;5018491;28;20197;-86
2023/11/01 03:00:20;;;;;;;0.00;0.00;;;;;;;-144.99;100.00;67352.69;4952830;28;20210;-86
2023/11/01 03:02:57;;;;;;;0.00;0.00;;;;;;;-144.99;100.00;67352.69;4998594;28;20194;-86
2023/11/01 03:05:24;;;;;;;0.00;0.00;;;;;;;-144.99;100.00;67352.69;5000807;28;20204;-86
2023/11/01 03:07:50;;;;;;;0.20;0.20;;;;;;;-144.99;100.00;67352.69;4959509;28;20261;-86
2023/11/01 03:10:18;;;;;;;0.00;0.00;;;;;;;-144.99;100.00;67352.69;5035324;28;20483;-87
2023/11/01 03:12:51;;;;;;;0.00;0.00;;;;;;;-144.99;100.00;67352.69;5021877;28;20198;-87
2023/11/01 03:15:17;;;;;;;0.00;0.00;;;;;;;-144.99;100.00;67352.69;4975422;28;20215;-87
2023/11/01 03:17:45;;;;;;;0.00;0.00;;;;;;;-144.99;100.00;67352.69;4979845;28;20274;-86
2023/11/01 03:20:10;;;;;;;0.00;0.00;;;;;;;-144.99;100.00;67352.69;4956917;28;20233;-87
2023/11/01 03:22:36;;;;;;;0.00;0.00;;;;;;;-144.99;100.00;67352.69;4998912;28;20657;-87
2023/11/01 03:25:11;;;;;;;0.07;0.07;;;;;;;-144.99;100.00;67352.69;5007807;28;20225;-87
2023/11/01 03:27:39;;;;;;;0.00;0.00;;;;;;;-144.99;100.00;67352.69;4984497;28;20186;-86
2023/11/01 03:30:11;;;;;;;0.00;0.00;;;;;;;-144.99;100.00;67352.69;5000311;28;20204;-86
2023/11/01 03:32:39;;;;;;;0.00;0.00;;;;;;;-144.99;100.00;67352.69;4958724;28;20184;-87
2023/11/01 03:35:05;;;;;;;0.20;0.20;;;;;;;-144.99;100.00;67352.69;5007527;28;20206;-87
2023/11/01 03:37:34;;;;;;;0.00;0.00;;;;;;;-144.99;100.00;67352.69;4987362;28;20608;-87
2023/11/01 03:40:02;;;;;;;0.00;0.00;;;;;;;-144.99;100.00;67352.69;4999448;28;20225;-87
2023/11/01 03:42:28;;;;;;;0.00;0.00;;;;;;;-144.99;100.00;67352.69;4984186;28;20237;-87
2023/11/01 03:44:53;;;;;;;0.00;0.00;;;;;;;-144.99;100.00;67352.69;5013445;28;20210;-87
2023/11/01 03:47:19;;;;;;;0.00;0.00;;;;;;;-144.99;100.00;67352.69;5000725;28;20186;-88
2023/11/01 03:49:44;;;;;;;0.00;0.00;;;;;;;-144.99;100.00;67352.69;4957495;28;20186;-86
2023/11/01 03:52:13;;;;;;;0.00;0.00;;;;;;;-144.99;100.00;67352.69;4998594;28;20198;-86
2023/11/01 03:54:38;;;;;;;0.00;0.00;;;;;;;-144.99;100.00;67352.69;4999024;28;20238;-86
2023/11/01 03:57:07;;;;;;;0.00;0.00;;;;;;;-144.99;100.00;67352.69;4956189;28;20612;-87
2023/11/01 03:59:40;;;;;;;0.00;0.00;;;;;;;-144.99;100.00;67352.69;4998151;28;20214;-87
2023/11/01 04:02:05;;;;;;;0.00;0.00;;;;;;;-144.99;100.00;67352.69;4998049;28;20215;-87
2023/11/01 04:04:33;;;;;;;0.00;0.00;;;;;;;-144.99;100.00;67352.69;4956047;28;20211;-87
2023/11/01 04:06:58;;;;;;;0.17;0.10;;;;;;;-144.99;100.00;67352.69;4956026;28;20201;-87
2023/11/01 04:09:24;;;;;;;0.00;0.00;;;;;;;-144.99;100.00;67352.69;4980912;28;20195;-86
2023/11/01 04:11:55;;;;;;;1.70;0.47;;;;;;;-144.99;100.00;67352.69;4974314;28;20186;-86
2023/11/01 04:14:20;;;;;;;0.00;0.00;;;;;;;-144.99;100.00;67352.69;5015684;28;20187;-86
2023/11/01 04:16:49;;;;;;;0.00;0.00;;;;;;;-144.99;100.00;67352.69;5015639;28;20264;-86
2023/11/01 04:19:20;;;;;;;0.10;0.10;;;;;;;-144.99;100.00;67352.69;4998107;28;20214;-87
2023/11/01 04:21:49;;;;;;;0.00;0.00;;;;;;;-144.99;100.00;67352.69;4994105;28;20210;-87
2023/11/01 04:24:14;;;;;;;0.80;0.80;;;;;;;-144.99;100.00;67352.69;4969693;28;20202;-87
2023/11/01 04:26:39;;;;;;;0.00;0.00;;;;;;;-144.99;100.00;67352.69;4978625;28;20178;-87
2023/11/01 04:29:05;;;;;;;0.20;0.20;;;;;;;-144.99;100.00;67352.69;5006799;28;20182;-87
2023/11/01 04:31:30;;;;;;;0.00;0.00;;;;;;;-144.99;100.00;67352.69;5013046;28;20175;-87
2023/11/01 04:33:57;;;;;;;0.83;0.83;;;;;;;-144.99;100.00;67352.69;4966536;28;20652;-86
2023/11/01 04:36:26;;;;;;;0.37;0.37;;;;;;;-144.99;100.00;67352.69;4954124;28;20207;-86
2023/11/01 04:38:55;;;;;;;0.00;0.00;;;;;;;-144.99;100.00;67352.69;4955312;28;20215;-86
2023/11/01 04:41:21;;;;;;;0.20;0.20;;;;;;;-144.99;100.00;67352.69;4954830;28;20664;-87
2023/11/01 04:43:49;;;;;;;0.60;0.60;;;;;;;-144.99;100.00;67352.69;4963685;28;20593;-84
2023/11/01 04:46:15;;;;;;;4.07;0.20;;;;;;;-144.99;100.00;67352.69;4953914;28;20210;-87
2023/11/01 04:48:40;;;;;;;0.00;0.00;;;;;;;-144.99;100.00;67352.69;4995817;28;20190;-87
2023/11/01 04:51:05;;;;;;;0.10;0.10;;;;;;;-144.99;100.00;67352.69;4953331;28;20218;-87
2023/11/01 04:53:31;;;;;;;0.00;0.00;;;;;;;-144.99;100.00;67352.69;4953567;28;20214;-87
2023/11/01 04:55:56;;;;;;;0.70;0.70;;;;;;;-144.99;100.00;67352.69;4953108;28;20289;-87
2023/11/01 04:58:22;;;;;;;0.00;0.00;;;;;;;-144.99;100.00;67352.69;4954927;28;20214;-86
2023/11/01 05:00:49;;;;;;;0.00;0.00;;;;;;;-144.99;100.00;67352.69;4953444;28;20183;-87
2023/11/01 05:03:14;;;;;;;0.00;0.00;;;;;;;-144.99;100.00;67352.69;4970296;28;20203;-87
2023/11/01 05:05:39;;;;;;;0.00;0.00;;;;;;;-144.99;100.00;67352.69;4977253;28;20684;-87
2023/11/01 05:08:08;;;;;;;0.00;0.00;;;;;;;-144.99;100.00;67352.69;4995099;28;20555;-87
2023/11/01 05:14:05;;;;;;;0.00;0.00;;;;;;;-144.99;100.00;67352.69;4983936;28;20283;-87
2023/11/01 05:17:19;;;;;;;0.00;0.00;;;;;;;-144.99;100.00;67352.69;5012204;28;20215;-87
2023/11/01 05:19:57;;;;;;;0.00;0.00;;;;;;;-144.99;100.00;67352.69;4991461;28;20336;-87
2023/11/01 05:22:23;;;;;;;0.00;0.00;;;;;;;-144.99;100.00;67352.69;4962031;28;20190;-87
2023/11/01 05:24:51;;;;;;;0.00;0.00;;;;;;;-144.99;100.00;67352.69;4952580;28;20210;-87
2023/11/01 05:27:19;;;;;;;0.10;0.10;;;;;;;-144.99;100.00;67352.69;4964522;28;20577;-87
2023/11/01 05:29:47;;;;;;;0.00;0.00;;;;;;;-144.99;100.00;67352.69;5012401;28;20175;-87
2023/11/01 05:32:15;;;;;;;0.00;0.00;;;;;;;-144.99;100.00;67352.69;4996805;28;20240;-87
2023/11/01 05:34:41;;;;;;;0.00;0.00;;;;;;;-144.99;100.00;67352.69;4993542;28;20292;-88
2023/11/01 05:37:09;;;;;;;0.53;0.47;;;;;;;-144.99;100.00;67352.69;4994767;28;20174;-87
2023/11/01 05:39:34;;;;;;;0.13;0.13;;;;;;;-144.99;100.00;67352.69;4951905;28;20218;-87
2023/11/01 05:42:00;;;;;;;0.00;0.00;;;;;;;-144.99;100.00;67352.69;4952255;28;20182;-87
2023/11/01 05:44:25;;;;;;;0.00;0.00;;;;;;;-144.99;100.00;67352.69;4951418;28;20206;-87
2023/11/01 05:46:53;;;;;;;0.00;0.00;;;;;;;-144.99;100.00;67352.69;4993460;28;20188;-87
2023/11/01 05:49:20;;;;;;;0.00;0.00;;;;;;;-144.99;100.00;67352.69;4951996;28;20216;-87
2023/11/01 05:51:45;;;;;;;0.00;0.00;;;;;;;-144.99;100.00;67352.69;4993256;28;20189;-88
2023/11/01 05:54:11;;;;;;;0.00;0.00;;;;;;;-144.99;100.00;67352.69;4966000;28;20560;-87
2023/11/01 05:56:36;;;;;;;0.00;0.00;;;;;;;-144.99;100.00;67352.69;4979026;28;20182;-87
2023/11/01 05:59:01;;;;;;;0.00;0.00;;;;;;;-144.99;100.00;67352.69;4951032;28;20284;-87
2023/11/01 06:01:27;;;;;;;0.00;0.00;;;;;;;-144.99;100.00;67352.69;4951230;28;20186;-88
2023/11/01 06:03:56;;;;;;;0.00;0.00;;;;;;;-144.99;100.00;67352.69;4952867;28;20232;-86
2023/11/01 06:06:23;;;;;;;0.00;0.00;;;;;;;-144.99;100.00;67352.69;4952577;28;20202;-86
2023/11/01 06:08:49;;;;;;;0.00;0.00;;;;;;;-144.99;100.00;67352.69;4953075;28;20182;-86
2023/11/01 06:11:15;;;;;;;0.00;0.00;;;;;;;-144.99;100.00;67352.69;4952610;28;20185;-87
2023/11/01 06:13:40;;;;;;;0.00;0.00;;;;;;;-144.99;100.00;67352.69;4986779;28;20178;-87
2023/11/01 06:16:07;;;;;;;0.00;0.00;;;;;;;-144.99;100.00;67352.69;4989101;23;20316;-88
2023/11/01 06:18:33;;;;;;;0.00;0.00;;;;;;;-144.99;100.00;67352.69;4970263;28;20188;-89
2023/11/01 06:20:58;;;;;;;0.00;0.00;;;;;;;-144.99;100.00;67352.69;4971424;28;20182;-87
2023/11/01 06:23:24;;;;;;;0.00;0.00;;;;;;;-144.99;100.00;67352.69;4970152;28;20195;-89
2023/11/01 06:25:49;;;;;;;0.17;0.17;;;;;;;-144.99;100.00;67352.69;4970544;28;20213;-89
2023/11/01 06:28:14;;;;;;;0.00;0.00;;;;;;;-144.99;100.00;67352.69;4970828;28;20695;-88
2023/11/01 06:30:41;;;;;;;0.00;0.00;;;;;;;-144.99;100.00;67352.69;4971046;28;20225;-88
2023/11/01 06:33:06;;;;;;;0.00;0.00;;;;;;;-144.99;100.00;67352.69;4970944;28;20185;-88
2023/11/01 06:35:32;;;;;;;0.00;0.00;;;;;;;-144.99;100.00;67352.69;4969842;28;20699;-88
2023/11/01 06:37:57;;;;;;;0.00;0.00;;;;;;;-144.99;100.00;67352.69;4971181;28;20633;-88
2023/11/01 06:40:22;;;;;;;0.00;0.00;;;;;;;-144.99;100.00;67352.69;4972288;28;20210;-88
2023/11/01 06:42:48;;;;;;;0.07;0.07;;;;;;;-144.99;100.00;67352.69;4972645;28;20198;-88
2023/11/01 06:45:13;;;;;;;0.27;0.27;;;;;;;-144.99;100.00;67352.69;4972558;28;20640;-88
2023/11/01 06:47:39;;;;;;;0.53;0.50;;;;;;;-144.99;100.00;67352.69;4971774;28;20193;-88
2023/11/01 06:50:04;;;;;;;0.00;0.00;;;;;;;-144.99;100.00;67352.69;4971314;28;20248;-88
2023/11/01 06:52:30;;;;;;;0.00;0.00;;;;;;;-144.99;100.00;67352.69;4972080;28;20189;-89
2023/11/01 06:54:55;;;;;;;13.57;0.50;;;;;;;-144.99;100.00;67352.69;4972391;28;20186;-88
2023/11/01 06:57:21;;;;;;;0.70;0.70;;;;;;;-144.99;100.00;67352.69;4972456;28;20285;-87
2023/11/01 06:59:47;;;;;;;0.00;0.00;;;;;;;-144.99;100.00;67352.69;4974730;28;20204;-87
2023/11/01 07:02:12;;;;;;;0.00;0.00;;;;;;;-144.99;100.00;67352.69;4974727;28;20186;-87
2023/11/01 07:04:37;;;;;;;0.10;0.10;;;;;;;-144.99;100.00;67352.69;4975265;28;20186;-88
2023/11/01 07:07:03;;;;;;;0.00;0.00;;;;;;;-144.99;100.00;67352.69;4976056;28;20206;-89
2023/11/01 07:09:28;;;;;;;0.00;0.00;;;;;;;-144.99;100.00;67352.69;4975622;28;20222;-88
2023/11/01 07:11:53;;;;;;;0.00;0.00;;;;;;;-144.99;100.00;67352.69;4973564;28;20210;-87
2023/11/01 07:14:19;;;;;;;0.00;0.00;;;;;;;-144.99;100.00;67352.69;4973033;28;20182;-88
2023/11/01 07:16:45;;;;;;;0.00;0.00;;;;;;;-144.99;100.00;67352.69;4974840;28;20683;-88
2023/11/01 07:19:14;;;;;;;0.00;0.00;;;;;;;-144.99;100.00;67352.69;4975272;28;20209;-88
2023/11/01 07:21:42;;;;;;;0.00;0.00;;;;;;;-144.99;100.00;67352.69;4973357;28;20265;-89
2023/11/01 07:24:08;;;;;;;0.00;0.00;;;;;;;-144.99;100.00;67352.69;4973106;28;20182;-87
2023/11/01 07:26:33;;;;;;;0.00;0.00;;;;;;;-144.99;100.00;67352.69;4974009;28;20567;-88
2023/11/01 07:28:59;;;;;;;0.00;0.00;;;;;;;-144.99;100.00;67352.69;4973373;28;20186;-88
2023/11/01 07:31:25;;;;;;;0.00;0.00;;;;;;;-144.99;100.00;67352.69;4974162;28;20195;-88
2023/11/01 07:33:50;;;;;;;0.00;0.00;;;;;;;-144.99;100.00;67352.69;4974314;28;20174;-88
2023/11/01 07:36:16;;;;;;;0.00;0.00;;;;;;;-144.99;100.00;67352.69;4975215;28;20231;-86
2023/11/01 07:38:41;;;;;;;0.00;0.00;;;;;;;-144.99;100.00;67352.69;4973998;28;20235;-88
2023/11/01 07:41:07;;;;;;;0.10;0.10;;;;;;;-144.99;100.00;67352.69;4972874;28;20177;-89
2023/11/01 07:43:32;;;;;;;0.00;0.00;;;;;;;-144.99;100.00;67352.69;4973199;28;20652;-88
2023/11/01 07:45:58;;;;;;;0.17;0.17;;;;;;;-144.99;100.00;67352.69;4973086;28;20688;-88
2023/11/01 07:48:23;;;;;;;1.43;1.43;;;;;;;-144.99;100.00;67352.69;4973843;28;20182;-87
2023/11/01 07:50:49;;;;;;;0.30;0.30;;;;;;;-144.99;100.00;67352.69;4973535;28;20219;-87
2023/11/01 07:53:14;;;;;;;0.03;0.03;;;;;;;-144.99;100.00;67352.69;4973672;28;20190;-89
2023/11/01 07:55:39;;;;;;;0.40;0.40;;;;;;;-144.99;100.00;67352.69;4972964;28;20874;-88
2023/11/01 07:58:06;;;;;;;0.20;0.20;;;;;;;-144.99;100.00;67352.69;4973079;28;20236;-88
2023/11/01 08:00:31;;;;;;;0.00;0.00;;;;;;;-144.99;100.00;67352.69;4973620;28;20194;-88
2023/11/01 08:02:56;;;;;;;0.00;0.00;;;;;;;-144.99;100.00;67352.69;4975170;28;20559;-88
2023/11/01 08:05:22;;;;;;;0.00;0.00;;;;;;;-144.99;100.00;67352.69;4972700;28;20201;-88
2023/11/01 08:07:48;;;;;;;0.00;0.00;;;;;;;-144.99;100.00;67352.69;4972480;28;20272;-89
2023/11/01 08:10:14;;;;;;;0.00;0.00;;;;;;;-144.99;100.00;67352.69;4972674;28;20289;-89
2023/11/01 08:12:40;;;;;;;0.00;0.00;;;;;;;-144.99;100.00;67352.69;4972246;28;20655;-88
2023/11/01 08:15:06;;;;;;;0.00;0.00;;;;;;;-144.99;100.00;67352.69;4972076;28;20296;-90
2023/11/01 08:17:31;;;;;;;0.00;0.00;;;;;;;-144.99;100.00;67352.69;4975951;28;20182;-91
2023/11/01 08:19:57;;;;;;;0.00;0.00;;;;;;;-144.99;100.00;67352.69;4979054;28;20688;-89
2023/11/01 08:22:23;;;;;;;0.00;0.00;;;;;;;-144.99;100.00;67352.69;4975345;28;20181;-88
2023/11/01 08:24:48;;;;;;;0.00;0.00;;;;;;;-144.99;100.00;67352.69;4989130;28;20185;-88
2023/11/01 08:27:13;;;;;;;0.00;0.00;;;;;;;-144.99;100.00;67352.69;4971757;28;20180;-88
2023/11/01 08:29:42;;;;;;;0.00;0.00;;;;;;;-144.99;100.00;67352.69;4972091;28;20251;-88
2023/11/01 08:32:07;;;;;;;0.00;0.00;;;;;;;-144.99;100.00;67352.69;4986875;28;20219;-89
2023/11/01 08:34:33;;;;;;;0.00;0.00;;;;;;;-144.99;100.00;67352.69;4978152;28;20178;-90
2023/11/01 08:36:58;;;;;;;0.10;0.10;;;;;;;-144.99;100.00;67352.69;4970507;28;20208;-89
2023/11/01 08:39:24;;;;;;;0.00;0.00;;;;;;;-144.99;100.00;67352.69;4970889;28;20210;-89
2023/11/01 08:41:49;;;;;;;0.63;0.63;;;;;;;-144.99;100.00;67352.69;4970796;28;20182;-89
2023/11/01 08:44:15;;;;;;;0.20;0.20;;;;;;;-144.99;100.00;67352.69;4972056;28;20185;-89
2023/11/01 08:46:40;;;;;;;0.00;0.00;;;;;;;-144.99;100.00;67352.69;4976347;28;20201;-89
2023/11/01 08:49:05;;;;;;;0.00;0.00;;;;;;;-144.99;100.00;67352.69;4987221;28;20183;-89
2023/11/01 08:51:30;;;;;;;0.07;0.07;;;;;;;-144.99;100.00;67352.69;4970314;28;20190;-89
2023/11/01 08:53:59;;;;;;;0.00;0.00;;;;;;;-144.99;100.00;67352.69;4971941;28;20202;-89
2023/11/01 08:56:25;;;;;;;0.13;0.13;;;;;;;-144.99;100.00;67352.69;4970441;28;20798;-89
2023/11/01 08:58:50;;;;;;;0.00;0.00;;;;;;;-144.99;100.00;67352.69;4970335;28;20288;-89
2023/11/01 09:01:16;;;;;;;0.00;0.00;;;;;;;-144.99;100.00;67352.69;4970516;28;20666;-89
2023/11/01 09:03:42;;;;;;;0.00;0.00;;;;;;;-144.99;100.00;67352.69;4970154;28;20178;-90
2023/11/01 09:06:08;;;;;;;0.00;0.00;;;;;;;-144.99;100.00;67352.69;4970122;28;20204;-89
2023/11/01 09:08:33;;;;;;;0.00;0.00;;;;;;;-144.99;100.00;67352.69;4970348;28;20186;-90
2023/11/01 09:10:58;;;;;;;0.00;0.00;;;;;;;-144.99;100.00;67352.69;4967601;28;20187;-90
2023/11/01 09:13:24;;;;;;;0.00;0.00;;;;;;;-144.99;100.00;67352.69;4973183;28;20547;-89
2023/11/01 09:15:49;;;;;;;0.00;0.00;;;;;;;-144.99;100.00;67352.69;4975989;28;20209;-89
2023/11/01 09:18:14;;;;;;;0.10;0.10;;;;;;;-144.99;100.00;67352.69;4977517;28;20248;-89
2023/11/01 09:20:40;;;;;;;12.53;0.23;;;;;;;-144.99;100.00;67352.69;4980455;28;20213;-89
2023/11/01 09:23:05;;;;;;;0.03;0.03;;;;;;;-144.99;100.00;67352.69;4976742;28;20664;-88
2023/11/01 09:25:31;;;;;;;0.00;0.00;;;;;;;-144.99;100.00;67352.69;4979481;28;20231;-89
2023/11/01 09:27:57;;;;;;;0.00;0.00;;;;;;;-144.99;100.00;67352.69;4968553;28;20190;-89
2023/11/01 09:30:23;;;;;;;0.00;0.00;;;;;;;-144.99;100.00;67352.69;4985443;28;20174;-88
2023/11/01 09:32:48;;;;;;;0.00;0.00;;;;;;;-144.99;100.00;67352.69;4978463;28;20272;-89
2023/11/01 09:35:13;;;;;;;0.00;0.00;;;;;;;-144.99;100.00;67352.69;4976330;28;20672;-89
2023/11/01 09:37:39;;;;;;;0.00;0.00;;;;;;;-144.99;100.00;67352.69;4969726;28;20181;-89
2023/11/01 09:40:05;;;;;;;0.00;0.00;;;;;;;-144.99;100.00;67352.69;4973635;28;20632;-89
2023/11/01 09:42:30;;;;;;;0.00;0.00;;;;;;;-144.99;100.00;67352.69;4967619;28;20729;-88
2023/11/01 09:44:57;;;;;;;0.27;0.27;;;;;;;-144.99;100.00;67352.69;4966539;28;20282;-88
2023/11/01 09:47:27;;;;;;;0.73;0.73;;;;;;;-144.99;100.00;67352.69;4972754;28;20197;-88
2023/11/01 09:49:56;;;;;;;0.10;0.10;;;;;;;-144.99;100.00;67352.69;4981194;28;20280;-88
2023/11/01 09:52:26;;;;;;;0.10;0.10;;;;;;;-144.99;100.00;67352.69;4973149;28;20189;-88
2023/11/01 09:54:52;;;;;;;0.43;0.10;;;;;;;-144.99;100.00;67352.69;4977518;28;20185;-88
2023/11/01 09:57:20;;;;;;;0.20;0.20;;;;;;;-144.99;100.00;67352.69;4977404;28;20205;-87
2023/11/01 09:59:46;;;;;;;0.10;0.10;;;;;;;-144.99;100.00;67352.69;4972003;28;20209;-88
2023/11/01 10:02:12;;;;;;;0.10;0.10;;;;;;;-144.99;100.00;67352.69;4970680;28;20184;-87
2023/11/01 10:04:39;;;;;;;0.20;0.20;;;;;;;-144.99;100.00;67352.69;4967730;28;20198;-88
2023/11/01 10:07:07;;;;;;;0.97;0.20;;;;;;;-144.99;100.00;67352.69;4970238;28;20225;-89
2023/11/01 10:09:35;;;;;;;5.77;1.03;;;;;;;-144.99;100.00;67352.69;4972291;28;20186;-88
2023/11/01 10:12:00;;;;;;;0.20;0.20;;;;;;;-144.99;100.00;67352.69;4972342;28;20192;-89
2023/11/01 10:14:36;;;;;;;0.30;0.30;;;;;;;-144.99;100.00;67352.69;4971858;28;20549;-90
2023/11/01 10:17:02;;;;;;;0.23;0.23;;;;;;;-144.99;100.00;67352.69;4972002;28;20221;-88
2023/11/01 10:19:28;;;;;;;0.10;0.10;;;;;;;-144.99;100.00;67352.69;4975078;28;20703;-87
2023/11/01 10:21:55;;;;;;;0.20;0.10;;;;;;;-144.99;100.00;67352.69;4974005;28;20219;-89
2023/11/01 10:24:25;;;;;;;0.10;0.10;;;;;;;-144.99;100.00;67352.69;4975749;28;20190;-88
2023/11/01 10:26:51;;;;;;;0.50;0.50;;;;;;;-144.99;100.00;67352.69;4975168;28;20675;-88
2023/11/01 10:29:17;;;;;;;0.00;0.00;;;;;;;-144.99;100.00;67352.69;4974505;28;20174;-88
2023/11/01 10:31:42;;;;;;;0.00;0.00;;;;;;;-144.99;100.00;67352.69;4975409;28;20193;-88
2023/11/01 10:34:15;;;;;;;6.10;0.40;;;;;;;-144.99;100.00;67352.69;4978620;28;20675;-87
2023/11/01 10:36:51;;;;;;;0.00;0.00;;;;;;;-144.99;100.00;67352.69;4978241;28;20205;-88
2023/11/01 10:39:21;;;;;;;0.20;0.20;;;;;;;-144.99;100.00;67352.69;4977705;28;20302;-88
2023/11/01 10:41:48;;;;;;;0.00;0.00;;;;;;;-144.99;100.00;67352.69;4979003;28;20785;-89
2023/11/01 10:44:15;;;;;;;0.40;0.40;;;;;;;-144.99;100.00;67352.69;4978246;28;20182;-88
2023/11/01 10:46:41;;;;;;;5.13;0.40;;;;;;;-144.99;100.00;67352.69;4978918;28;20247;-88
2023/11/01 10:49:10;;;;;;;3.40;0.37;;;;;;;-144.99;100.00;67352.69;4978877;28;20186;-88
2023/11/01 10:51:49;;;;;;;0.20;0.20;;;;;;;-144.99;100.00;67352.69;4976881;28;20189;-87
2023/11/01 10:54:17;;;;;;;0.53;0.53;;;;;;;-144.99;100.00;67352.69;4977646;28;20449;-88
2023/11/01 10:56:43;;;;;;;1.07;0.97;;;;;;;-144.99;100.00;67352.69;4976524;28;20294;-88
2023/11/01 10:59:30;;;;;;;4.23;0.53;;;;;;;-144.99;100.00;67352.69;4976896;28;20715;-88
2023/11/01 11:02:06;;;;;;;1.03;0.40;;;;;;;-144.99;100.00;67352.69;4978557;28;20254;-88
2023/11/01 11:04:43;;;;;;;1.07;0.97;;;;;;;-144.99;100.00;67352.69;4977165;28;20200;-88
2023/11/01 11:07:19;;;;;;;0.30;0.30;;;;;;;-144.99;100.00;67352.69;4977090;28;20177;-88
2023/11/01 11:09:44;;;;;;;0.00;0.00;;;;;;;-144.99;100.00;67352.69;4975758;28;20186;-88
2023/11/01 11:12:21;;;;;;;0.77;0.77;;;;;;;-144.99;100.00;67352.69;4975207;28;20671;-88
2023/11/01 11:14:53;;;;;;;1.00;0.90;;;;;;;-144.99;100.00;67352.69;4975488;28;20178;-88